createdAt,value
2023-11-03T00:00:03.873Z,96284.25
2023-11-03T00:02:06.941Z,96299.97
2023-11-03T00:04:10.073Z,96295.84
2023-11-03T00:06:11.989Z,96294.00
2023-11-03T00:08:13.541Z,96316.75
2023-11-03T00:10:15.440Z,96309.31
2023-11-03T00:12:17.042Z,96295.75
2023-11-03T00:14:18.726Z,96305.63
2023-11-03T00:16:20.190Z,96307.69
2023-11-03T00:18:23.553Z,96308.19
2023-11-03T00:20:25.173Z,96303.66
2023-11-03T00:22:28.618Z,96292.66
2023-11-03T00:24:30.260Z,96299.91
2023-11-03T00:26:31.726Z,96298.41
2023-11-03T00:28:33.138Z,96300.19
2023-11-03T00:30:36.706Z,96307.59
2023-11-03T00:32:39.114Z,96307.91
2023-11-03T00:34:40.644Z,96308.97
2023-11-03T00:36:43.849Z,96330.53
2023-11-03T00:38:47.322Z,96330.63
2023-11-03T00:40:48.753Z,96325.97
2023-11-03T00:42:50.204Z,96329.97
2023-11-03T00:44:51.691Z,96332.88
2023-11-03T00:46:53.138Z,96334.66
2023-11-03T00:48:55.800Z,96339.59
2023-11-03T00:50:57.414Z,96333.28
2023-11-03T00:52:58.894Z,96339.41
2023-11-03T00:55:00.778Z,96334.66
2023-11-03T00:57:02.647Z,96334.53
2023-11-03T00:59:04.206Z,96349.28
2023-11-03T01:01:08.510Z,96348.97
2023-11-03T01:03:10.113Z,96349.09
2023-11-03T01:05:12.108Z,96358.31
2023-11-03T01:07:14.102Z,96361.47
2023-11-03T01:09:15.734Z,96348.97
2023-11-03T01:11:17.198Z,96354.81
2023-11-03T01:13:22.209Z,96360.69
2023-11-03T01:15:24.493Z,96362.34
2023-11-03T01:17:28.429Z,96369.75
2023-11-03T01:19:32.103Z,96371.22
2023-11-03T01:21:33.898Z,96363.91
2023-11-03T01:23:36.937Z,96371.31
2023-11-03T01:25:38.403Z,96371.63
2023-11-03T01:27:39.959Z,96371.09
2023-11-03T01:29:41.803Z,96370.56
2023-11-03T01:31:43.310Z,96364.50
2023-11-03T01:33:46.081Z,96366.72
2023-11-03T01:35:47.539Z,96375.91
2023-11-03T01:37:49.092Z,96382.94
2023-11-03T01:39:51.904Z,96394.53
2023-11-03T01:41:53.456Z,96396.97
2023-11-03T01:44:10.341Z,96395.13
2023-11-03T01:46:11.912Z,96397.94
2023-11-03T01:48:13.437Z,96386.03
2023-11-03T01:50:16.434Z,96381.03
2023-11-03T01:52:18.122Z,96378.91
2023-11-03T01:54:20.491Z,96376.38
2023-11-03T01:56:23.149Z,96378.41
2023-11-03T01:58:24.948Z,96377.72
2023-11-03T02:00:27.042Z,96374.59
2023-11-03T02:02:29.238Z,96376.28
2023-11-03T02:04:30.963Z,96382.28
2023-11-03T02:06:33.063Z,96383.00
2023-11-03T02:08:34.564Z,96374.72
2023-11-03T02:10:36.533Z,96379.97
2023-11-03T02:12:38.157Z,96387.41
2023-11-03T02:14:39.689Z,96386.63
2023-11-03T02:16:41.973Z,96382.53
2023-11-03T02:18:43.593Z,96379.91
2023-11-03T02:20:45.179Z,96388.28
2023-11-03T02:22:52.822Z,96392.28
2023-11-03T02:24:54.419Z,96381.44
2023-11-03T02:26:55.901Z,96380.31
2023-11-03T02:28:57.377Z,96390.31
2023-11-03T02:30:58.964Z,96393.75
2023-11-03T02:33:00.928Z,96395.59
2023-11-03T02:35:02.711Z,96387.03
2023-11-03T02:37:04.887Z,96401.66
2023-11-03T02:39:07.726Z,96396.09
2023-11-03T02:41:09.186Z,96400.38
2023-11-03T02:43:10.683Z,96394.25
2023-11-03T02:45:12.247Z,96386.91
2023-11-03T02:47:13.677Z,96387.09
2023-11-03T02:49:15.266Z,96392.97
2023-11-03T02:51:16.932Z,96396.88
2023-11-03T02:53:19.542Z,96392.56
2023-11-03T02:55:21.868Z,96389.25
2023-11-03T02:57:23.437Z,96405.53
2023-11-03T02:59:24.916Z,96399.81
2023-11-03T03:01:28.273Z,96395.78
2023-11-03T03:03:29.769Z,96396.09
2023-11-03T03:05:31.229Z,96398.53
2023-11-03T03:07:33.027Z,96394.81
2023-11-03T03:09:34.498Z,96395.41
2023-11-03T03:11:35.958Z,96375.22
2023-11-03T03:13:37.482Z,96382.03
2023-11-03T03:15:38.997Z,96397.16
2023-11-03T03:17:40.514Z,96391.13
2023-11-03T03:19:42.329Z,96396.69
2023-11-03T03:21:43.835Z,96394.34
2023-11-03T03:23:45.636Z,96404.28
2023-11-03T03:25:47.202Z,96408.97
2023-11-03T03:27:49.397Z,96409.06
2023-11-03T03:29:50.971Z,96412.50
2023-11-03T03:31:52.441Z,96409.06
2023-11-03T03:33:54.063Z,96398.22
2023-11-03T03:35:55.711Z,96410.63
2023-11-03T03:37:57.178Z,96415.03
2023-11-03T03:39:58.769Z,96404.47
2023-11-03T03:42:00.336Z,96404.78
2023-11-03T03:44:01.788Z,96422.44
2023-11-03T03:46:03.419Z,96422.72
2023-11-03T03:48:05.104Z,96416.09
2023-11-03T03:50:07.522Z,96420.78
2023-11-03T03:52:09.023Z,96426.81
2023-11-03T03:54:10.516Z,96423.44
2023-11-03T03:56:11.967Z,96411.00
2023-11-03T03:58:13.448Z,96417.97
2023-11-03T04:00:15.116Z,96434.25
2023-11-03T04:02:18.346Z,96431.34
2023-11-03T04:04:20.315Z,96438.13
2023-11-03T04:06:21.815Z,96426.06
2023-11-03T04:08:23.307Z,96423.44
2023-11-03T04:10:24.845Z,96432.41
2023-11-03T04:12:26.352Z,96426.25
2023-11-03T04:14:27.861Z,96424.41
2023-11-03T04:16:36.492Z,96418.84
2023-11-03T04:18:44.111Z,96421.78
2023-11-03T04:20:46.038Z,96432.22
2023-11-03T04:22:47.503Z,96446.75
2023-11-03T04:24:49.053Z,96448.41
2023-11-03T04:26:50.552Z,96442.16
2023-11-03T04:28:52.244Z,96448.28
2023-11-03T04:30:53.678Z,96453.47
2023-11-03T04:32:55.211Z,96454.31
2023-11-03T04:34:56.888Z,96456.97
2023-11-03T04:36:58.401Z,96453.16
2023-11-03T04:39:00.002Z,96458.22
2023-11-03T04:41:02.184Z,96468.66
2023-11-03T04:43:03.989Z,96464.75
2023-11-03T04:45:05.795Z,96456.75
2023-11-03T04:47:07.295Z,96453.47
2023-11-03T04:49:09.017Z,96447.50
2023-11-03T04:51:11.474Z,96454.13
2023-11-03T04:53:13.023Z,96446.13
2023-11-03T04:55:14.728Z,96454.56
2023-11-03T04:57:18.124Z,96462.06
2023-11-03T04:59:21.850Z,96462.19
2023-11-03T05:01:24.481Z,96458.00
2023-11-03T05:03:26.016Z,96473.91
2023-11-03T05:05:31.224Z,96464.31
2023-11-03T05:07:34.721Z,96472.91
2023-11-03T05:09:38.088Z,96471.47
2023-11-03T05:11:39.635Z,96477.38
2023-11-03T05:13:45.982Z,96471.81
2023-11-03T05:15:48.652Z,96472.59
2023-11-03T05:17:50.235Z,96471.75
2023-11-03T05:19:52.213Z,96471.75
2023-11-03T05:21:54.674Z,96471.75
2023-11-03T05:23:56.280Z,96474.31
2023-11-03T05:25:57.915Z,96475.66
2023-11-03T05:27:59.477Z,96487.75
2023-11-03T05:30:01.138Z,96489.81
2023-11-03T05:32:03.433Z,96491.84
2023-11-03T05:34:05.027Z,96484.53
2023-11-03T05:36:06.868Z,96481.91
2023-11-03T05:38:08.294Z,96489.53
2023-11-03T05:40:12.820Z,96494.41
2023-11-03T05:42:14.399Z,96505.22
2023-11-03T05:44:16.127Z,96488.88
2023-11-03T05:46:18.419Z,96491.22
2023-11-03T05:48:19.873Z,96501.75
2023-11-03T05:50:21.416Z,96504.69
2023-11-03T05:52:22.989Z,96513.91
2023-11-03T05:54:24.767Z,96514.50
2023-11-03T05:56:26.766Z,96512.66
2023-11-03T05:58:28.287Z,96521.53
2023-11-03T06:00:31.290Z,96522.34
2023-11-03T06:02:32.780Z,96526.22
2023-11-03T06:04:35.494Z,96531.72
2023-11-03T06:06:37.004Z,96531.97
2023-11-03T06:08:38.792Z,96535.41
2023-11-03T06:10:40.227Z,96540.19
2023-11-03T06:12:42.124Z,96544.88
2023-11-03T06:14:43.563Z,96541.38
2023-11-03T06:16:45.034Z,96546.72
2023-11-03T06:18:47.072Z,96539.13
2023-11-03T06:20:48.976Z,96539.34
2023-11-03T06:22:50.502Z,96540.66
2023-11-03T06:24:52.099Z,96538.03
2023-11-03T06:26:56.792Z,96544.41
2023-11-03T06:28:58.357Z,96545.47
2023-11-03T06:31:00.684Z,96548.38
2023-11-03T06:33:02.206Z,96555.78
2023-11-03T06:35:05.024Z,96544.19
2023-11-03T06:37:06.820Z,96549.94
2023-11-03T06:39:08.271Z,96537.94
2023-11-03T06:41:13.161Z,96540.56
2023-11-03T06:43:14.714Z,96547.09
2023-11-03T06:45:17.396Z,96546.81
2023-11-03T06:47:18.934Z,96557.34
2023-11-03T06:49:20.525Z,96566.03
2023-11-03T06:51:22.049Z,96561.84
2023-11-03T06:53:26.667Z,96568.97
2023-11-03T06:55:28.975Z,96567.91
2023-11-03T06:57:30.917Z,96569.06
2023-11-03T06:59:34.626Z,96563.91
2023-11-03T07:01:36.300Z,96566.53
2023-11-03T07:03:37.843Z,96572.50
2023-11-03T07:05:39.962Z,96563.91
2023-11-03T07:07:41.926Z,96574.34
2023-11-03T07:09:44.068Z,96579.53
2023-11-03T07:11:46.461Z,96580.06
2023-11-03T07:13:48.246Z,96580.25
2023-11-03T07:15:49.788Z,96575.53
2023-11-03T07:17:51.936Z,96584.81
2023-11-03T07:19:53.881Z,96583.44
2023-11-03T07:21:56.293Z,96581.91
2023-11-03T07:23:57.883Z,96582.69
2023-11-03T07:26:02.262Z,96576.06
2023-11-03T07:28:03.965Z,96583.22
2023-11-03T07:30:06.810Z,96582.47
2023-11-03T07:32:08.647Z,96584.22
2023-11-03T07:34:10.199Z,96579.25
2023-11-03T07:36:12.384Z,96580.31
2023-11-03T07:38:14.362Z,96574.78
2023-11-03T07:40:16.061Z,96574.22
2023-11-03T07:42:17.723Z,96573.31
2023-11-03T07:44:19.198Z,96581.28
2023-11-03T07:46:20.736Z,96576.69
2023-11-03T07:48:23.994Z,96582.38
2023-11-03T07:50:26.294Z,96583.31
2023-11-03T07:52:27.845Z,96589.84
2023-11-03T07:54:29.662Z,96593.34
2023-11-03T07:56:35.735Z,96593.47
2023-11-03T07:58:38.403Z,96600.34
2023-11-03T08:00:39.880Z,96606.59
2023-11-03T08:02:42.734Z,96605.69
2023-11-03T08:04:44.346Z,96599.28
2023-11-03T08:06:49.611Z,96603.38
2023-11-03T08:08:51.454Z,96620.47
2023-11-03T08:10:54.260Z,96621.75
2023-11-03T08:12:58.487Z,96619.81
2023-11-03T08:15:07.380Z,96619.31
2023-11-03T08:17:14.789Z,96625.38
2023-11-03T08:19:16.434Z,96641.97
2023-11-03T08:21:17.972Z,96648.34
2023-11-03T08:23:23.009Z,96648.63
2023-11-03T08:25:25.018Z,96648.72
2023-11-03T08:27:26.471Z,96653.56
2023-11-03T08:29:28.320Z,96658.28
2023-11-03T08:31:29.833Z,96658.56
2023-11-03T08:33:31.520Z,96659.63
2023-11-03T08:35:33.035Z,96676.25
2023-11-03T08:37:34.650Z,96679.09
2023-11-03T08:39:36.779Z,96667.75
2023-11-03T08:41:39.100Z,96687.00
2023-11-03T08:43:40.612Z,96673.34
2023-11-03T08:45:42.247Z,96676.47
2023-11-03T08:47:44.231Z,96690.63
2023-11-03T08:49:45.996Z,96703.03
2023-11-03T08:51:48.105Z,96706.19
2023-11-03T08:53:49.668Z,96706.47
2023-11-03T08:55:52.165Z,96726.59
2023-11-03T08:57:55.736Z,96737.72
2023-11-03T08:59:57.213Z,96752.69
2023-11-03T09:01:58.691Z,96763.53
2023-11-03T09:04:00.642Z,96766.94
2023-11-03T09:06:02.482Z,96769.88
2023-11-03T09:08:04.300Z,96778.34
2023-11-03T09:10:08.002Z,96782.34
2023-11-03T09:12:09.629Z,96780.25
2023-11-03T09:14:11.242Z,96781.53
2023-11-03T09:16:12.680Z,96773.53
2023-11-03T09:18:16.037Z,96781.25
2023-11-03T09:20:19.375Z,96787.28
2023-11-03T09:22:28.552Z,96793.34
2023-11-03T09:24:35.364Z,96793.34
2023-11-03T09:26:36.785Z,96794.44
2023-11-03T09:28:40.416Z,96796.06
2023-11-03T09:30:43.347Z,96799.78
2023-11-03T09:32:48.732Z,96794.91
2023-11-03T09:34:50.490Z,96798.56
2023-11-03T09:36:52.091Z,96801.78
2023-11-03T09:38:53.564Z,96801.03
2023-11-03T09:40:55.643Z,96812.16
2023-11-03T09:42:57.137Z,96801.03
2023-11-03T09:44:59.560Z,96811.09
2023-11-03T09:47:02.689Z,96827.56
2023-11-03T09:49:04.599Z,96832.28
2023-11-03T09:51:08.059Z,96831.63
2023-11-03T09:53:12.884Z,96827.06
2023-11-03T09:55:21.176Z,96821.72
2023-11-03T09:57:24.378Z,96820.94
2023-11-03T09:59:26.567Z,96821.44
2023-11-03T10:01:29.147Z,96816.38
2023-11-03T10:03:30.788Z,96824.19
2023-11-03T10:05:34.627Z,96821.78
2023-11-03T10:07:36.164Z,96819.84
2023-11-03T10:09:38.728Z,96821.13
2023-11-03T10:11:41.689Z,96822.34
2023-11-03T10:13:43.137Z,96814.03
2023-11-03T10:15:45.249Z,96814.28
2023-11-03T10:17:48.373Z,96824.22
2023-11-03T10:22:15.637Z,96826.59
2023-11-03T10:24:17.111Z,96824.56
2023-11-03T10:26:18.638Z,96818.59
2023-11-03T10:28:25.718Z,96819.00
2023-11-03T10:30:28.558Z,96815.09
2023-11-03T10:32:30.130Z,96815.97
2023-11-03T10:34:32.040Z,96809.91
2023-11-03T10:36:33.526Z,96811.00
2023-11-03T10:38:35.096Z,96798.34
2023-11-03T10:40:36.607Z,96800.97
2023-11-03T10:42:49.385Z,96800.97
2023-11-03T10:44:57.098Z,96803.63
2023-11-03T10:47:11.426Z,96801.78
2023-11-03T10:49:22.542Z,96809.22
2023-11-03T10:51:34.861Z,96810.28
2023-11-03T10:54:12.144Z,96804.31
2023-11-03T10:56:26.720Z,96800.09
2023-11-03T10:58:36.000Z,96809.81
2023-11-03T11:01:04.523Z,96816.94
2023-11-03T11:03:18.315Z,96808.44
2023-11-03T11:05:39.330Z,96800.88
2023-11-03T11:07:43.084Z,96809.13
2023-11-03T11:09:50.072Z,96789.44
2023-11-03T11:11:52.016Z,96798.34
2023-11-03T11:13:54.053Z,96783.91
2023-11-03T11:15:58.735Z,96783.22
2023-11-03T11:18:15.065Z,96758.03
2023-11-03T11:20:31.560Z,96765.28
2023-11-03T11:22:41.475Z,96763.31
2023-11-03T11:24:46.184Z,96761.03
2023-11-03T11:26:52.585Z,96757.78
2023-11-03T11:28:54.119Z,96764.81
2023-11-03T11:30:55.597Z,96760.38
2023-11-03T11:32:57.241Z,96778.13
2023-11-03T11:34:58.911Z,96760.19
2023-11-03T11:37:25.002Z,96767.25
2023-11-03T11:39:27.152Z,96770.44
2023-11-03T11:41:34.762Z,96768.16
2023-11-03T11:43:45.068Z,96778.63
2023-11-03T11:45:53.109Z,96788.47
2023-11-03T11:47:56.597Z,96776.16
2023-11-03T11:49:59.378Z,96790.19
2023-11-03T11:52:01.619Z,96786.28
2023-11-03T11:54:04.119Z,96791.47
2023-11-03T11:56:06.901Z,96793.19
2023-11-03T11:58:10.374Z,96791.63
2023-11-03T12:00:20.493Z,96799.81
2023-11-03T12:02:22.998Z,96801.72
2023-11-03T12:04:25.245Z,96811.31
2023-11-03T12:06:27.273Z,96811.00
2023-11-03T12:08:28.812Z,96795.72
2023-11-03T12:10:34.423Z,96804.38
2023-11-03T12:12:36.247Z,96805.97
2023-11-03T12:14:38.216Z,96801.91
2023-11-03T12:16:39.850Z,96791.28
2023-11-03T12:18:42.764Z,96797.03
2023-11-03T12:21:03.305Z,96794.31
2023-11-03T12:23:05.439Z,96802.56
2023-11-03T12:25:07.649Z,96802.44
2023-11-03T12:27:09.144Z,96800.84
2023-11-03T12:29:32.393Z,96813.94
2023-11-03T12:31:34.077Z,96814.69
2023-11-03T12:33:37.272Z,96824.50
2023-11-03T12:35:38.797Z,96826.63
2023-11-03T12:37:44.460Z,96828.69
2023-11-03T12:39:53.811Z,96831.09
2023-11-03T12:42:08.375Z,96840.03
2023-11-03T12:44:09.852Z,96844.09
2023-11-03T12:46:11.600Z,96853.63
2023-11-03T12:48:22.683Z,96849.75
2023-11-03T12:50:26.735Z,96864.31
2023-11-03T12:52:28.341Z,96858.59
2023-11-03T12:54:31.052Z,96860.00
2023-11-03T12:56:46.562Z,96866.31
2023-11-03T12:58:48.669Z,96866.25
2023-11-03T13:00:50.711Z,96863.00
2023-11-03T13:02:53.845Z,96867.22
2023-11-03T13:04:55.503Z,96852.66
2023-11-03T13:06:58.923Z,96874.81
2023-11-03T13:09:01.927Z,96867.47
2023-11-03T13:11:05.456Z,96879.00
2023-11-03T13:13:10.325Z,96876.59
2023-11-03T13:15:12.283Z,96863.00
2023-11-03T13:17:15.785Z,96876.94
2023-11-03T13:19:18.142Z,96878.06
2023-11-03T13:21:19.699Z,96884.25
2023-11-03T13:23:21.277Z,96875.81
2023-11-03T13:25:22.769Z,96890.81
2023-11-03T13:27:24.294Z,96897.06
2023-11-03T13:29:25.748Z,96895.03
2023-11-03T13:31:27.296Z,96891.59
2023-11-03T13:33:28.765Z,96896.63
2023-11-03T13:35:30.602Z,96903.59
2023-11-03T13:37:32.569Z,96914.13
2023-11-03T13:39:34.367Z,96917.16
2023-11-03T13:41:35.779Z,96912.94
2023-11-03T13:43:40.408Z,96907.50
2023-11-03T13:45:42.036Z,96921.34
2023-11-03T13:47:43.791Z,96917.53
2023-11-03T13:49:46.157Z,96919.91
2023-11-03T13:51:51.243Z,96915.78
2023-11-03T13:53:52.679Z,96916.47
2023-11-03T13:55:54.314Z,96928.25
2023-11-03T13:58:01.394Z,96926.69
2023-11-03T14:00:07.408Z,96919.50
2023-11-03T14:02:08.959Z,96925.19
2023-11-03T14:04:10.477Z,96924.47
2023-11-03T14:06:12.034Z,96930.78
2023-11-03T14:08:14.969Z,96936.25
2023-11-03T14:10:16.781Z,96933.72
2023-11-03T14:12:21.379Z,96944.53
2023-11-03T14:14:26.785Z,96941.69
2023-11-03T14:16:29.439Z,96949.22
2023-11-03T14:18:31.019Z,96947.06
2023-11-03T14:20:32.568Z,96947.97
2023-11-03T14:22:34.109Z,96948.44
2023-11-03T14:24:36.402Z,96948.84
2023-11-03T14:26:40.743Z,96949.16
2023-11-03T14:28:42.242Z,96950.78
2023-11-03T14:30:43.781Z,96945.97
2023-11-03T14:32:45.234Z,96947.53
2023-11-03T14:34:47.480Z,96953.66
2023-11-03T14:36:51.490Z,96951.41
2023-11-03T14:38:53.807Z,96950.97
2023-11-03T14:40:55.540Z,96953.72
2023-11-03T14:42:57.020Z,96954.03
2023-11-03T14:44:59.344Z,96953.44
2023-11-03T14:47:00.840Z,96961.59
2023-11-03T14:49:07.632Z,96960.34
2023-11-03T14:51:12.228Z,96948.94
2023-11-03T14:53:14.626Z,96957.38
2023-11-03T14:55:23.067Z,96948.06
2023-11-03T14:57:25.289Z,96957.09
2023-11-03T14:59:28.190Z,96950.44
2023-11-03T15:01:33.249Z,96962.59
2023-11-03T15:03:35.625Z,96966.22
2023-11-03T15:05:38.508Z,96972.00
2023-11-03T15:07:41.240Z,96970.59
2023-11-03T15:09:42.914Z,96971.59
2023-11-03T15:11:50.806Z,96967.19
2023-11-03T15:13:55.841Z,96972.66
2023-11-03T15:15:57.369Z,96971.00
2023-11-03T15:18:01.736Z,96964.84
2023-11-03T15:20:11.089Z,96971.06
2023-11-03T15:22:12.585Z,96965.19
2023-11-03T15:24:14.135Z,96974.63
2023-11-03T15:26:15.604Z,96977.16
2023-11-03T15:28:18.825Z,96971.09
2023-11-03T15:30:23.772Z,96983.34
2023-11-03T15:32:25.740Z,96981.94
2023-11-03T15:34:27.416Z,96987.31
2023-11-03T15:36:31.141Z,96986.84
2023-11-03T15:38:33.521Z,96986.44
2023-11-03T15:40:35.017Z,96998.88
2023-11-03T15:42:38.966Z,96997.03
2023-11-03T15:44:40.928Z,96992.59
2023-11-03T15:46:42.391Z,97002.91
2023-11-03T15:48:45.655Z,97000.28
2023-11-03T15:50:47.466Z,97008.84
2023-11-03T15:52:51.268Z,97010.50
2023-11-03T15:54:52.839Z,97014.06
2023-11-03T15:56:55.230Z,97003.31
2023-11-03T15:58:56.873Z,97004.06
2023-11-03T16:00:58.493Z,97007.94
2023-11-03T16:03:00.057Z,97007.09
2023-11-03T16:05:03.654Z,97010.56
2023-11-03T16:07:06.187Z,97016.97
2023-11-03T16:09:12.759Z,97026.09
2023-11-03T16:11:14.457Z,97024.06
2023-11-03T16:13:19.515Z,97028.75
2023-11-03T16:15:21.090Z,97031.94
2023-11-03T16:17:22.545Z,97036.78
2023-11-03T16:19:25.644Z,97042.22
2023-11-03T16:21:28.316Z,97042.53
2023-11-03T16:23:29.779Z,97048.03
2023-11-03T16:25:31.330Z,97047.91
2023-11-03T16:27:32.784Z,97053.22
2023-11-03T16:29:34.245Z,97059.03
2023-11-03T16:31:35.732Z,97063.84
2023-11-03T16:33:37.438Z,97064.69
2023-11-03T16:35:39.297Z,97058.13
2023-11-03T16:37:42.033Z,97059.84
2023-11-03T16:39:45.264Z,97048.94
2023-11-03T16:41:46.755Z,97058.72
2023-11-03T16:43:48.262Z,97059.38
2023-11-03T16:45:49.663Z,97057.19
2023-11-03T16:47:51.163Z,97060.56
2023-11-03T16:49:52.821Z,97072.00
2023-11-03T16:51:54.448Z,97063.63
2023-11-03T16:53:56.098Z,97066.31
2023-11-03T16:55:57.654Z,97078.47
2023-11-03T16:57:59.208Z,97080.69
2023-11-03T17:00:01.294Z,97081.19
2023-11-03T17:02:05.489Z,97080.44
2023-11-03T17:04:09.560Z,97078.09
2023-11-03T17:06:12.632Z,97084.41
2023-11-03T17:08:14.517Z,97085.22
2023-11-03T17:10:16.336Z,97088.13
2023-11-03T17:12:17.881Z,97095.25
2023-11-03T17:14:21.983Z,97096.34
2023-11-03T17:16:27.437Z,97097.97
2023-11-03T17:18:28.981Z,97090.34
2023-11-03T17:20:30.532Z,97085.09
2023-11-03T17:22:32.012Z,97090.09
2023-11-03T17:24:34.546Z,97085.38
2023-11-03T17:26:35.963Z,97096.44
2023-11-03T17:28:37.508Z,97087.25
2023-11-03T17:30:39.127Z,97091.72
2023-11-03T17:32:40.801Z,97084.66
2023-11-03T17:34:44.374Z,97087.53
2023-11-03T17:36:46.245Z,97085.66
2023-11-03T17:38:47.719Z,97088.59
2023-11-03T17:40:49.224Z,97094.63
2023-11-03T17:42:51.861Z,97093.31
2023-11-03T17:44:54.352Z,97087.03
2023-11-03T17:46:56.788Z,97095.75
2023-11-03T17:48:58.290Z,97091.78
2023-11-03T17:50:59.811Z,97095.22
2023-11-03T17:53:02.153Z,97090.22
2023-11-03T17:55:05.214Z,97089.69
2023-11-03T17:57:07.472Z,97090.00
2023-11-03T17:59:08.981Z,97087.59
2023-11-03T18:01:10.486Z,97091.03
2023-11-03T18:03:14.132Z,97090.28
2023-11-03T18:05:17.188Z,97093.66
2023-11-03T18:07:19.898Z,97092.09
2023-11-03T18:09:21.378Z,97097.09
2023-11-03T18:11:26.851Z,97096.03
2023-11-03T18:13:29.872Z,97099.97
2023-11-03T18:15:31.409Z,97107.59
2023-11-03T18:17:34.534Z,97102.59
2023-11-03T18:19:39.956Z,97109.19
2023-11-03T18:21:41.531Z,97105.25
2023-11-03T18:23:43.031Z,97107.59
2023-11-03T18:25:44.613Z,97105.75
2023-11-03T18:27:46.381Z,97109.97
2023-11-03T18:29:48.300Z,97112.84
2023-11-03T18:31:49.818Z,97117.84
2023-11-03T18:33:51.343Z,97112.06
2023-11-03T18:35:52.785Z,97109.97
2023-11-03T18:37:54.480Z,97114.94
2023-11-03T18:39:55.922Z,97113.38
2023-11-03T18:41:57.699Z,97120.22
2023-11-03T18:43:59.225Z,97121.50
2023-11-03T18:46:00.703Z,97112.06
2023-11-03T18:48:05.112Z,97118.09
2023-11-03T18:51:23.038Z,97120.19
2023-11-03T18:52:30.197Z,97120.19
2023-11-03T18:58:13.519Z,97119.41
2023-11-03T19:07:08.824Z,97113.63
2023-11-03T19:07:41.411Z,97111.25
2023-11-03T19:09:43.907Z,97117.06
2023-11-03T19:11:45.371Z,97112.56
2023-11-03T19:13:48.269Z,97119.94
2023-11-03T19:15:52.094Z,97115.97
2023-11-03T19:17:53.842Z,97114.66
2023-11-03T19:19:55.392Z,97115.94
2023-11-03T19:21:58.122Z,97116.47
2023-11-03T19:23:59.625Z,97113.06
2023-11-03T19:26:01.097Z,97118.31
2023-11-03T19:28:05.318Z,97123.31
2023-11-03T19:30:07.354Z,97131.69
2023-11-03T19:32:09.025Z,97120.91
2023-11-03T19:34:11.074Z,97120.66
2023-11-03T19:36:20.382Z,97117.78
2023-11-03T19:38:22.924Z,97120.66
2023-11-03T19:40:27.126Z,97117.25
2023-11-03T19:42:28.681Z,97120.16
2023-11-03T19:44:30.132Z,97124.34
2023-11-03T19:46:31.679Z,97130.09
2023-11-03T19:48:33.257Z,97131.94
2023-11-03T19:50:35.491Z,97129.84
2023-11-03T19:52:37.445Z,97127.75
2023-11-03T19:54:38.881Z,97124.59
2023-11-03T19:56:41.542Z,97129.28
2023-11-03T19:58:43.166Z,97125.88
2023-11-03T20:00:48.886Z,97134.25
2023-11-03T20:02:50.650Z,97139.78
2023-11-03T20:04:53.268Z,97134.53
2023-11-03T20:06:55.155Z,97138.19
2023-11-03T20:08:56.916Z,97134.00
2023-11-03T20:10:58.487Z,97145.28
2023-11-03T20:13:00.008Z,97139.50
2023-11-03T20:15:02.393Z,97138.72
2023-11-03T20:17:05.301Z,97145.78
2023-11-03T20:19:06.910Z,97139.50
2023-11-03T20:21:08.533Z,97144.25
2023-11-03T20:23:10.520Z,97136.09
2023-11-03T20:25:11.945Z,97136.59
2023-11-03T20:27:13.627Z,97136.59
2023-11-03T20:29:15.330Z,97140.03
2023-11-03T20:31:17.190Z,97135.06
2023-11-03T20:33:21.090Z,97128.50
2023-11-03T20:35:23.118Z,97125.91
2023-11-03T20:37:24.794Z,97131.94
2023-11-03T20:39:26.335Z,97129.31
2023-11-03T20:41:27.777Z,97135.34
2023-11-03T20:43:30.027Z,97137.97
2023-11-03T20:45:32.289Z,97130.34
2023-11-03T20:47:34.204Z,97134.81
2023-11-03T20:49:36.320Z,97136.38
2023-11-03T20:51:37.962Z,97134.53
2023-11-03T20:53:39.489Z,97135.03
2023-11-03T20:55:42.994Z,97138.16
2023-11-03T20:57:44.989Z,97130.56
2023-11-03T20:59:46.563Z,97132.16
2023-11-03T21:01:48.094Z,97135.03
2023-11-03T21:03:50.386Z,97138.69
2023-11-03T21:05:58.816Z,97135.81
2023-11-03T21:08:00.867Z,97129.22
2023-11-03T21:10:02.329Z,97127.91
2023-11-03T21:12:04.130Z,97136.31
2023-11-03T21:14:06.235Z,97130.53
2023-11-03T21:16:08.197Z,97133.16
2023-11-03T21:18:12.547Z,97132.09
2023-11-03T21:20:14.196Z,97132.09
2023-11-03T21:22:15.807Z,97133.66
2023-11-03T21:24:17.309Z,97137.63
2023-11-03T21:26:21.380Z,97135.75
2023-11-03T21:28:22.929Z,97125.22
2023-11-03T21:30:24.579Z,97136.50
2023-11-03T21:32:26.023Z,97134.63
2023-11-03T21:34:27.572Z,97119.41
2023-11-03T21:36:29.424Z,97120.41
2023-11-03T21:38:32.533Z,97128.25
2023-11-03T21:40:34.075Z,97125.63
2023-11-03T21:42:35.853Z,97121.97
2023-11-03T21:44:37.711Z,97124.59
2023-11-03T21:46:39.200Z,97119.34
2023-11-03T21:48:40.720Z,97122.50
2023-11-03T21:50:42.382Z,97118.31
2023-11-03T21:52:44.069Z,97123.00
2023-11-03T21:54:45.602Z,97115.94
2023-11-03T21:56:47.085Z,97113.03
2023-11-03T21:58:51.247Z,97103.53
2023-11-03T22:00:52.730Z,97110.09
2023-11-03T22:02:54.273Z,97119.25
2023-11-03T22:04:59.823Z,97121.09
2023-11-03T22:07:01.245Z,97117.41
2023-11-03T22:09:09.386Z,97116.38
2023-11-03T22:11:11.697Z,97110.59
2023-11-03T22:13:13.179Z,97120.06
2023-11-03T22:15:19.798Z,97110.59
2023-11-03T22:17:21.222Z,97118.19
2023-11-03T22:19:22.846Z,97120.25
2023-11-03T22:21:24.558Z,97122.13
2023-11-03T22:23:26.063Z,97118.47
2023-11-03T22:25:28.747Z,97127.63
2023-11-03T22:27:30.363Z,97125.56
2023-11-03T22:29:39.626Z,97120.53
2023-11-03T22:31:49.666Z,97116.31
2023-11-03T22:33:51.228Z,97123.09
2023-11-03T22:35:53.179Z,97121.78
2023-11-03T22:37:54.640Z,97126.56
2023-11-03T22:39:56.065Z,97124.22
2023-11-03T22:41:57.468Z,97126.03
2023-11-03T22:43:58.897Z,97125.50
2023-11-03T22:46:00.350Z,97118.41
2023-11-03T22:50:28.978Z,97119.44
2023-11-03T22:52:30.411Z,97125.53
2023-11-03T22:54:32.260Z,97123.69
2023-11-03T22:56:33.778Z,97124.22
2023-11-03T22:58:36.848Z,97130.53
2023-11-03T23:00:38.287Z,97127.16
2023-11-03T23:02:41.103Z,97129.78
2023-11-03T23:04:42.550Z,97127.44
2023-11-03T23:06:44.112Z,97125.38
2023-11-03T23:08:46.542Z,97125.13
2023-11-03T23:10:50.412Z,97125.13
2023-11-03T23:12:51.956Z,97125.97
2023-11-03T23:14:53.836Z,97120.50
2023-11-03T23:16:55.402Z,97118.16
2023-11-03T23:18:56.987Z,97118.69
2023-11-03T23:20:58.513Z,97120.53
2023-11-03T23:23:00.460Z,97116.06
2023-11-03T23:25:02.251Z,97121.59
2023-11-03T23:27:03.801Z,97117.41
2023-11-03T23:29:05.274Z,97123.47
2023-11-03T23:31:06.984Z,97120.59
2023-11-03T23:33:08.497Z,97122.69
2023-11-03T23:35:10.177Z,97117.19
2023-11-03T23:37:12.050Z,97124.56
2023-11-03T23:39:14.313Z,97118.00
2023-11-03T23:41:15.782Z,97120.91
2023-11-03T23:43:17.226Z,97130.31
2023-11-03T23:45:18.731Z,97116.94
2023-11-03T23:47:20.277Z,97103.81
2023-11-03T23:49:21.785Z,97105.91
2023-11-03T23:51:23.319Z,97098.28
2023-11-03T23:53:24.786Z,97101.44
2023-11-03T23:55:26.235Z,97088.84
2023-11-03T23:57:27.700Z,97096.19
2023-11-03T23:59:30.556Z,97103.00
